Time;durP1;ratioP1;P1;durP2;ratioP2;P2;SDS_P1;SDS_P2;PMS_P1;PMS_P2;Temp;Humidity;BMP_temperature;BMP_pressure;BME280_temperature;BME280_humidity;BME280_pressure;Samples;Min_cycle;Max_cycle;Signal;HPM_P1;HPM_P2
2022/06/18 00:00:41;;;;;;;9.50;6.03;;;;;;;;;;6153609;23;20035;-49
2022/06/18 00:03:08;;;;;;;8.27;6.33;;;;;;;;;;6173190;23;20040;-47
2022/06/18 00:05:33;;;;;;;11.77;6.13;;;;;;;;;;6178405;23;20298;-48
2022/06/18 00:07:59;;;;;;;9.85;6.70;;;;;;;;;;6180712;23;20024;-49
2022/06/18 00:10:26;;;;;;;9.20;6.82;;;;;;;;;;6178885;23;20021;-49
2022/06/18 00:15:37;;;;;;;11.88;7.30;;;;;;;;;;6174944;23;20056;-48
2022/06/18 00:18:03;;;;;;;11.60;7.32;;;;;;;;;;6180279;23;20031;-48
2022/06/18 00:20:30;;;;;;;10.10;6.60;;;;;;;;;;6177104;23;20017;-46
2022/06/18 00:22:57;;;;;;;13.75;7.55;;;;;;;;;;6178811;23;20017;-48
2022/06/18 00:25:26;;;;;;;13.45;7.28;;;;;;;;;;6118372;23;20100;-46
2022/06/18 00:27:51;;;;;;;12.45;6.43;;;;;;;;;;6153254;23;20034;-47
2022/06/18 00:30:19;;;;;;;11.68;6.10;;;;;;;;;;6145987;23;20020;-50
2022/06/18 00:32:45;;;;;;;11.65;7.03;;;;;;;;;;6151768;23;20025;-49
2022/06/18 00:35:12;;;;;;;18.30;7.97;;;;;;;;;;6147803;23;20037;-49
2022/06/18 00:37:37;;;;;;;12.65;7.97;;;;;;;;;;6120729;23;20554;-49
2022/06/18 00:40:10;;;;;;;14.35;7.88;;;;;;;;;;6148764;23;20482;-48
2022/06/18 00:42:37;;;;;;;10.48;6.82;;;;;;;;;;6147330;23;19998;-45
2022/06/18 00:45:02;;;;;;;13.30;7.75;;;;;;;;;;6149071;23;20017;-50
2022/06/18 00:47:41;;;;;;;12.20;7.50;;;;;;;;;;6146254;23;20045;-46
2022/06/18 00:50:25;;;;;;;12.55;8.45;;;;;;;;;;6147947;23;20001;-48
2022/06/18 00:52:53;;;;;;;13.10;8.63;;;;;;;;;;6177565;23;20029;-46
2022/06/18 00:55:31;;;;;;;14.85;7.82;;;;;;;;;;6175519;23;20005;-47
2022/06/18 00:57:57;;;;;;;11.43;7.85;;;;;;;;;;6182418;23;20646;-47
2022/06/18 01:00:23;;;;;;;13.60;8.55;;;;;;;;;;6174984;23;20013;-47
2022/06/18 01:02:49;;;;;;;13.02;8.23;;;;;;;;;;6172278;23;20005;-46
2022/06/18 01:05:19;;;;;;;12.95;8.70;;;;;;;;;;6172581;23;20353;-47
2022/06/18 01:07:46;;;;;;;12.55;7.85;;;;;;;;;;6152986;23;20064;-47
2022/06/18 01:10:20;;;;;;;12.10;7.57;;;;;;;;;;6178375;23;20099;-49
2022/06/18 01:12:45;;;;;;;12.70;8.18;;;;;;;;;;6177464;23;20028;-46
2022/06/18 01:15:11;;;;;;;14.68;8.27;;;;;;;;;;6179333;23;20013;-45
2022/06/18 01:17:38;;;;;;;14.20;7.97;;;;;;;;;;6145623;23;20009;-47
2022/06/18 01:20:05;;;;;;;10.88;8.23;;;;;;;;;;6147891;23;20005;-48
2022/06/18 01:22:49;;;;;;;10.73;7.88;;;;;;;;;;6141278;23;20021;-46
2022/06/18 01:25:15;;;;;;;15.00;7.95;;;;;;;;;;6149172;23;20014;-45
2022/06/18 01:27:40;;;;;;;14.57;8.75;;;;;;;;;;6142384;23;20111;-47
2022/06/18 01:30:07;;;;;;;14.13;8.40;;;;;;;;;;6139808;23;20078;-47
2022/06/18 01:32:32;;;;;;;13.32;8.15;;;;;;;;;;6148286;23;20028;-45
2022/06/18 01:34:58;;;;;;;13.55;8.45;;;;;;;;;;6147079;23;20010;-46
2022/06/18 01:37:23;;;;;;;19.73;11.57;;;;;;;;;;6146436;23;20010;-46
2022/06/18 01:39:49;;;;;;;22.63;11.82;;;;;;;;;;6149187;23;20020;-45
2022/06/18 01:42:18;;;;;;;16.65;11.85;;;;;;;;;;6142713;23;20014;-45
2022/06/18 01:44:47;;;;;;;19.55;12.70;;;;;;;;;;6151348;23;20009;-49
2022/06/18 01:47:15;;;;;;;18.80;13.43;;;;;;;;;;6143333;23;20018;-46
2022/06/18 01:49:47;;;;;;;25.10;14.48;;;;;;;;;;6149704;23;20681;-46
2022/06/18 01:52:13;;;;;;;22.40;14.82;;;;;;;;;;6144129;23;20059;-47
2022/06/18 01:54:47;;;;;;;25.50;14.75;;;;;;;;;;6148515;23;20352;-47
2022/06/18 01:57:15;;;;;;;20.35;15.45;;;;;;;;;;6145691;23;20029;-47
2022/06/18 01:59:43;;;;;;;25.80;16.98;;;;;;;;;;6146869;23;20036;-47
2022/06/18 02:02:08;;;;;;;27.67;16.05;;;;;;;;;;6146948;23;20012;-48
2022/06/18 02:04:34;;;;;;;27.02;17.00;;;;;;;;;;6146392;23;20013;-47
2022/06/18 02:07:00;;;;;;;25.35;16.17;;;;;;;;;;6121458;23;20013;-51
2022/06/18 02:09:25;;;;;;;24.90;16.48;;;;;;;;;;6137747;23;20017;-45
2022/06/18 02:11:51;;;;;;;26.30;16.25;;;;;;;;;;6147848;23;20029;-47
2022/06/18 02:14:17;;;;;;;27.98;17.08;;;;;;;;;;6148081;23;20014;-46
2022/06/18 02:16:44;;;;;;;24.58;16.38;;;;;;;;;;6147186;23;20013;-46
2022/06/18 02:19:09;;;;;;;24.25;14.50;;;;;;;;;;6150161;23;20093;-50
2022/06/18 02:21:38;;;;;;;23.63;16.13;;;;;;;;;;6141714;23;20017;-45
2022/06/18 02:24:03;;;;;;;26.30;16.10;;;;;;;;;;6147872;23;20052;-46
2022/06/18 02:26:29;;;;;;;21.02;14.90;;;;;;;;;;6140277;23;20443;-46
2022/06/18 02:28:54;;;;;;;23.05;15.65;;;;;;;;;;6122226;23;20037;-47
2022/06/18 02:31:21;;;;;;;23.02;16.23;;;;;;;;;;6150522;23;20073;-47
2022/06/18 02:34:04;;;;;;;21.08;15.75;;;;;;;;;;6146550;23;20017;-47
2022/06/18 02:36:30;;;;;;;23.98;14.50;;;;;;;;;;6143871;23;20021;-48
2022/06/18 02:39:04;;;;;;;24.60;15.30;;;;;;;;;;6148359;23;20010;-47
2022/06/18 02:41:30;;;;;;;25.15;15.68;;;;;;;;;;6142100;23;20355;-46
2022/06/18 02:43:55;;;;;;;28.55;16.15;;;;;;;;;;6149670;23;20013;-46
2022/06/18 02:46:20;;;;;;;24.25;14.63;;;;;;;;;;6147547;23;20023;-47
2022/06/18 02:48:46;;;;;;;26.27;15.05;;;;;;;;;;6146469;23;20006;-48
2022/06/18 02:51:12;;;;;;;28.25;15.25;;;;;;;;;;6138959;23;20033;-45
2022/06/18 02:53:38;;;;;;;20.38;16.00;;;;;;;;;;6147172;23;20014;-46
2022/06/18 02:56:04;;;;;;;23.33;13.82;;;;;;;;;;6146291;23;20020;-46
2022/06/18 02:58:34;;;;;;;16.63;12.15;;;;;;;;;;6142766;23;20472;-48
2022/06/18 03:01:01;;;;;;;19.77;12.48;;;;;;;;;;6149004;23;20013;-47
2022/06/18 03:03:29;;;;;;;19.38;13.25;;;;;;;;;;6142434;23;20570;-46
2022/06/18 03:05:54;;;;;;;21.58;13.45;;;;;;;;;;6148256;23;20013;-46
2022/06/18 03:08:23;;;;;;;22.90;13.73;;;;;;;;;;6143343;23;20020;-46
2022/06/18 03:13:33;;;;;;;20.60;13.43;;;;;;;;;;6142777;23;20048;-45
2022/06/18 03:15:58;;;;;;;18.55;14.18;;;;;;;;;;6135595;23;20029;-47
2022/06/18 03:18:25;;;;;;;22.40;14.20;;;;;;;;;;6147578;23;20084;-49
2022/06/18 03:20:50;;;;;;;19.40;15.05;;;;;;;;;;6148976;23;20010;-45
2022/06/18 03:23:17;;;;;;;24.58;14.50;;;;;;;;;;6146766;23;20016;-49
2022/06/18 03:25:43;;;;;;;22.80;14.43;;;;;;;;;;6142711;23;20013;-48
2022/06/18 03:28:11;;;;;;;23.10;14.93;;;;;;;;;;6143674;23;20044;-47
2022/06/18 03:30:39;;;;;;;22.67;14.40;;;;;;;;;;6145684;23;20014;-49
2022/06/18 03:33:04;;;;;;;23.08;14.70;;;;;;;;;;6146610;23;20022;-47
2022/06/18 03:35:30;;;;;;;20.95;14.13;;;;;;;;;;6148545;23;20381;-49
2022/06/18 03:37:56;;;;;;;27.75;16.17;;;;;;;;;;6145640;23;20014;-48
2022/06/18 03:40:21;;;;;;;23.77;16.05;;;;;;;;;;6148224;23;20021;-51
2022/06/18 03:42:47;;;;;;;28.40;17.50;;;;;;;;;;6142738;23;20556;-46
2022/06/18 03:45:12;;;;;;;31.98;20.63;;;;;;;;;;6149950;23;20339;-49
2022/06/18 03:47:37;;;;;;;32.38;19.23;;;;;;;;;;6149354;23;20018;-48
2022/06/18 03:50:03;;;;;;;37.88;20.30;;;;;;;;;;6148676;23;20006;-46
2022/06/18 03:52:29;;;;;;;35.83;20.30;;;;;;;;;;6144722;23;20029;-45
2022/06/18 03:54:54;;;;;;;38.08;20.70;;;;;;;;;;6149519;23;20021;-46
2022/06/18 03:57:19;;;;;;;41.85;22.15;;;;;;;;;;6146051;23;20073;-47
2022/06/18 03:59:45;;;;;;;44.40;22.30;;;;;;;;;;6148420;23;20088;-48
2022/06/18 04:02:10;;;;;;;41.50;21.15;;;;;;;;;;6147034;23;20017;-49
2022/06/18 04:04:35;;;;;;;43.03;23.55;;;;;;;;;;6168840;23;20013;-49
2022/06/18 04:07:01;;;;;;;39.13;23.55;;;;;;;;;;6175642;23;20036;-48
2022/06/18 04:09:26;;;;;;;44.83;23.23;;;;;;;;;;6176921;23;20020;-49
2022/06/18 04:11:51;;;;;;;57.70;24.42;;;;;;;;;;6174849;23;20096;-48
2022/06/18 04:14:16;;;;;;;42.50;24.48;;;;;;;;;;6171017;23;20009;-48
2022/06/18 04:16:42;;;;;;;40.63;23.13;;;;;;;;;;6176497;23;20017;-47
2022/06/18 04:19:09;;;;;;;43.85;25.58;;;;;;;;;;6180130;23;20020;-47
2022/06/18 04:21:35;;;;;;;43.97;22.35;;;;;;;;;;6135264;23;20019;-51
2022/06/18 04:24:01;;;;;;;43.70;24.42;;;;;;;;;;6148141;23;20033;-46
2022/06/18 04:26:26;;;;;;;43.83;24.20;;;;;;;;;;6149011;23;20100;-48
2022/06/18 04:28:51;;;;;;;37.25;22.65;;;;;;;;;;6146814;23;20010;-48
2022/06/18 04:31:17;;;;;;;41.22;23.65;;;;;;;;;;6147233;23;20008;-46
2022/06/18 04:33:42;;;;;;;41.50;22.60;;;;;;;;;;6148150;23;20013;-47
2022/06/18 04:36:17;;;;;;;44.03;22.55;;;;;;;;;;6149034;23;20092;-46
2022/06/18 04:38:43;;;;;;;38.83;22.58;;;;;;;;;;6149814;23;20020;-46
2022/06/18 04:41:09;;;;;;;46.55;24.83;;;;;;;;;;6145171;23;20013;-47
2022/06/18 04:43:35;;;;;;;53.15;24.50;;;;;;;;;;6149929;23;20072;-46
2022/06/18 04:46:00;;;;;;;46.97;24.25;;;;;;;;;;6144491;23;20025;-45
2022/06/18 04:48:25;;;;;;;53.08;26.02;;;;;;;;;;6147602;23;20022;-51
2022/06/18 04:50:50;;;;;;;41.30;24.67;;;;;;;;;;6141432;23;20022;-47
2022/06/18 04:53:16;;;;;;;48.35;26.33;;;;;;;;;;6148340;23;20065;-49
2022/06/18 04:55:41;;;;;;;55.78;27.27;;;;;;;;;;6136752;23;20009;-47
2022/06/18 04:58:06;;;;;;;43.58;25.98;;;;;;;;;;6150682;23;20005;-46
2022/06/18 05:00:33;;;;;;;39.83;21.92;;;;;;;;;;6147202;23;20044;-48
2022/06/18 05:02:58;;;;;;;47.58;24.42;;;;;;;;;;6148442;23;20013;-47
2022/06/18 05:05:25;;;;;;;46.97;24.55;;;;;;;;;;6145583;23;20021;-45
2022/06/18 05:07:51;;;;;;;46.28;26.45;;;;;;;;;;6151519;23;20145;-48
2022/06/18 05:10:16;;;;;;;42.10;24.75;;;;;;;;;;6139216;23;20628;-47
2022/06/18 05:12:42;;;;;;;42.83;24.15;;;;;;;;;;6147538;23;20033;-46
2022/06/18 05:15:08;;;;;;;41.20;23.27;;;;;;;;;;6148572;23;20010;-47
2022/06/18 05:17:34;;;;;;;38.42;21.17;;;;;;;;;;6141439;23;20059;-46
2022/06/18 05:20:00;;;;;;;39.15;21.50;;;;;;;;;;6151761;23;20061;-47
2022/06/18 05:22:25;;;;;;;41.75;23.33;;;;;;;;;;6143565;23;20018;-46
2022/06/18 05:24:50;;;;;;;34.58;21.33;;;;;;;;;;6151399;23;20013;-46
2022/06/18 05:27:24;;;;;;;35.13;19.70;;;;;;;;;;6146638;23;20014;-48
2022/06/18 05:29:50;;;;;;;36.30;21.67;;;;;;;;;;6148947;23;20009;-48
2022/06/18 05:32:15;;;;;;;40.80;22.50;;;;;;;;;;6143246;23;20096;-46
2022/06/18 05:34:40;;;;;;;33.08;21.75;;;;;;;;;;6144975;23;20009;-46
2022/06/18 05:37:17;;;;;;;36.17;20.75;;;;;;;;;;6149533;23;20476;-46
2022/06/18 05:39:43;;;;;;;30.70;19.80;;;;;;;;;;6163827;23;20017;-46
2022/06/18 05:42:08;;;;;;;31.75;21.10;;;;;;;;;;6180246;23;20041;-48
2022/06/18 05:44:34;;;;;;;29.15;19.25;;;;;;;;;;6174764;23;20009;-47
2022/06/18 05:47:00;;;;;;;32.92;19.90;;;;;;;;;;6178438;23;20005;-49
2022/06/18 05:49:25;;;;;;;31.02;20.40;;;;;;;;;;6170735;23;20021;-49
2022/06/18 05:51:50;;;;;;;31.95;18.70;;;;;;;;;;6179107;23;20028;-45
2022/06/18 05:54:16;;;;;;;32.17;18.67;;;;;;;;;;6176337;23;20095;-48
2022/06/18 05:56:41;;;;;;;26.95;17.38;;;;;;;;;;6177205;23;20176;-47
2022/06/18 05:59:08;;;;;;;31.45;19.63;;;;;;;;;;6178770;23;20016;-48
2022/06/18 06:01:33;;;;;;;29.00;18.27;;;;;;;;;;6175027;23;20013;-50
2022/06/18 06:03:59;;;;;;;30.08;19.58;;;;;;;;;;6174209;23;20353;-49
2022/06/18 06:06:24;;;;;;;32.05;18.73;;;;;;;;;;6174540;23;20433;-47
2022/06/18 06:08:49;;;;;;;28.10;18.02;;;;;;;;;;6178278;23;20047;-46
2022/06/18 06:11:30;;;;;;;25.05;17.77;;;;;;;;;;6177038;23;20020;-48
2022/06/18 06:13:55;;;;;;;29.73;18.48;;;;;;;;;;6170987;23;20009;-47
2022/06/18 06:16:21;;;;;;;28.20;18.02;;;;;;;;;;6175237;23;20075;-50
2022/06/18 06:18:46;;;;;;;23.23;16.58;;;;;;;;;;6176984;23;20164;-47
2022/06/18 06:21:12;;;;;;;26.63;17.15;;;;;;;;;;6174770;23;20020;-46
2022/06/18 06:23:37;;;;;;;23.63;16.98;;;;;;;;;;6174520;23;20833;-47
2022/06/18 06:26:03;;;;;;;23.73;16.65;;;;;;;;;;6179711;23;20031;-46
2022/06/18 06:28:29;;;;;;;26.77;18.02;;;;;;;;;;6171745;23;20017;-46
2022/06/18 06:30:54;;;;;;;27.77;16.30;;;;;;;;;;6151501;23;20348;-49
2022/06/18 06:33:20;;;;;;;20.98;16.30;;;;;;;;;;6176668;23;20021;-48
2022/06/18 06:35:45;;;;;;;28.05;18.13;;;;;;;;;;6180039;23;20017;-48
2022/06/18 06:38:11;;;;;;;26.77;18.33;;;;;;;;;;6146941;23;20076;-50
2022/06/18 06:40:36;;;;;;;24.30;16.52;;;;;;;;;;6177781;23;20013;-46
2022/06/18 06:43:02;;;;;;;26.33;17.25;;;;;;;;;;6171118;23;20009;-46
2022/06/18 06:45:28;;;;;;;23.42;16.85;;;;;;;;;;6171138;23;20502;-46
2022/06/18 06:47:54;;;;;;;23.25;15.90;;;;;;;;;;6174861;23;20020;-51
2022/06/18 06:50:20;;;;;;;23.40;16.73;;;;;;;;;;6175648;23;20283;-46
2022/06/18 06:52:48;;;;;;;22.60;15.18;;;;;;;;;;6176363;23;20028;-49
2022/06/18 06:58:02;;;;;;;21.23;15.13;;;;;;;;;;6176933;23;20024;-50
2022/06/18 07:00:28;;;;;;;23.00;14.07;;;;;;;;;;6177496;23;20017;-47
2022/06/18 07:02:53;;;;;;;21.85;13.60;;;;;;;;;;6178539;23;20013;-49
2022/06/18 07:05:18;;;;;;;22.75;15.55;;;;;;;;;;6176517;23;20008;-49
2022/06/18 07:07:44;;;;;;;19.83;13.85;;;;;;;;;;6176129;23;20016;-47
2022/06/18 07:10:10;;;;;;;19.83;13.48;;;;;;;;;;6179592;23;20120;-48
2022/06/18 07:12:36;;;;;;;19.02;14.00;;;;;;;;;;6177125;23;20025;-48
2022/06/18 07:15:03;;;;;;;19.13;13.82;;;;;;;;;;6157237;23;20009;-46
2022/06/18 07:17:28;;;;;;;22.52;15.05;;;;;;;;;;6146402;23;20044;-50
2022/06/18 07:19:54;;;;;;;21.05;13.65;;;;;;;;;;6152139;23;20010;-45
2022/06/18 07:22:20;;;;;;;19.63;13.30;;;;;;;;;;6147267;23;20247;-46
2022/06/18 07:24:45;;;;;;;25.10;14.00;;;;;;;;;;6149541;23;20044;-48
2022/06/18 07:27:10;;;;;;;18.25;13.40;;;;;;;;;;6146319;23;20010;-50
2022/06/18 07:29:36;;;;;;;20.17;13.45;;;;;;;;;;6148527;23;20006;-45
2022/06/18 07:32:05;;;;;;;19.10;13.65;;;;;;;;;;6145943;23;20028;-48
2022/06/18 07:34:31;;;;;;;17.92;14.05;;;;;;;;;;6145993;23;20482;-47
2022/06/18 07:36:56;;;;;;;21.20;13.93;;;;;;;;;;6149812;23;20010;-48
2022/06/18 07:39:21;;;;;;;20.40;14.07;;;;;;;;;;6143040;23;20013;-47
2022/06/18 07:41:52;;;;;;;20.20;15.05;;;;;;;;;;6154068;23;20395;-49
2022/06/18 07:44:18;;;;;;;23.83;14.80;;;;;;;;;;6143333;23;20316;-50
2022/06/18 07:46:45;;;;;;;25.25;13.27;;;;;;;;;;6149625;23;20068;-49
2022/06/18 07:49:11;;;;;;;17.98;14.32;;;;;;;;;;6133009;23;20545;-48
2022/06/18 07:51:36;;;;;;;19.15;13.85;;;;;;;;;;6145452;23;20491;-45
2022/06/18 07:54:01;;;;;;;18.40;12.52;;;;;;;;;;6149207;23;20024;-46
2022/06/18 07:56:27;;;;;;;21.60;12.65;;;;;;;;;;6144422;23;20016;-49
2022/06/18 07:58:52;;;;;;;20.05;11.57;;;;;;;;;;6150780;23;20436;-49
2022/06/18 08:01:17;;;;;;;24.90;11.50;;;;;;;;;;6142570;23;20073;-49
2022/06/18 08:03:43;;;;;;;19.77;10.80;;;;;;;;;;6145927;23;20020;-48
2022/06/18 08:06:09;;;;;;;16.95;9.77;;;;;;;;;;6150839;23;20002;-46
2022/06/18 08:08:34;;;;;;;27.10;11.30;;;;;;;;;;6137419;23;20084;-49
2022/06/18 08:11:00;;;;;;;18.00;9.68;;;;;;;;;;6149825;23;20020;-46
2022/06/18 08:13:25;;;;;;;20.60;9.95;;;;;;;;;;6140099;23;20025;-47
2022/06/18 08:15:50;;;;;;;20.30;10.00;;;;;;;;;;6150961;23;20013;-45
2022/06/18 08:18:16;;;;;;;15.25;7.82;;;;;;;;;;6144584;23;20036;-47
2022/06/18 08:20:41;;;;;;;23.33;9.27;;;;;;;;;;6147271;23;20013;-46
2022/06/18 08:23:07;;;;;;;14.32;8.90;;;;;;;;;;6149136;23;20092;-48
2022/06/18 08:25:34;;;;;;;14.52;7.47;;;;;;;;;;6146360;23;20044;-45
2022/06/18 08:28:01;;;;;;;14.10;7.45;;;;;;;;;;6149182;23;20009;-47
2022/06/18 08:30:27;;;;;;;15.25;7.35;;;;;;;;;;6141822;23;20484;-49
2022/06/18 08:32:52;;;;;;;13.20;6.45;;;;;;;;;;6150075;23;20876;-50
2022/06/18 08:35:17;;;;;;;9.60;6.93;;;;;;;;;;6148557;23;20006;-48
2022/06/18 08:37:43;;;;;;;14.25;6.28;;;;;;;;;;6145199;23;20013;-46
2022/06/18 08:40:34;;;;;;;12.57;5.25;;;;;;;;;;6148747;23;20076;-48
2022/06/18 08:43:18;;;;;;;12.90;5.15;;;;;;;;;;6142618;23;20019;-46
2022/06/18 08:45:47;;;;;;;9.32;4.40;;;;;;;;;;6177284;23;20016;-47
2022/06/18 08:48:23;;;;;;;7.32;3.60;;;;;;;;;;6148285;23;20024;-47
2022/06/18 08:50:58;;;;;;;6.35;3.45;;;;;;;;;;6175241;23;20025;-50
2022/06/18 08:53:26;;;;;;;11.07;4.20;;;;;;;;;;6179721;23;20009;-49
2022/06/18 08:56:10;;;;;;;6.32;3.95;;;;;;;;;;6174341;23;20453;-52
2022/06/18 08:58:42;;;;;;;9.13;3.97;;;;;;;;;;6176688;23;20053;-47
2022/06/18 09:01:11;;;;;;;5.40;2.95;;;;;;;;;;6171152;23;20190;-50
2022/06/18 09:03:45;;;;;;;6.63;2.85;;;;;;;;;;6171197;23;20478;-47
2022/06/18 09:06:20;;;;;;;6.88;2.92;;;;;;;;;;6167212;23;20174;-52
2022/06/18 09:08:54;;;;;;;5.50;3.13;;;;;;;;;;6146466;23;20020;-50
2022/06/18 09:11:25;;;;;;;4.07;2.42;;;;;;;;;;6135583;23;20013;-49
2022/06/18 09:13:54;;;;;;;7.15;2.95;;;;;;;;;;6148312;23;20018;-46
2022/06/18 09:16:22;;;;;;;7.97;3.55;;;;;;;;;;6140892;23;20041;-47
2022/06/18 09:18:54;;;;;;;5.22;2.88;;;;;;;;;;6147261;23;20017;-50
2022/06/18 09:21:26;;;;;;;7.78;2.58;;;;;;;;;;6140463;23;20037;-47
2022/06/18 09:23:57;;;;;;;10.32;3.28;;;;;;;;;;6140096;23;20010;-51
2022/06/18 09:26:26;;;;;;;5.03;2.40;;;;;;;;;;6143648;23;20014;-48
2022/06/18 09:28:57;;;;;;;5.30;2.83;;;;;;;;;;6142362;23;20086;-50
2022/06/18 09:31:29;;;;;;;8.93;3.33;;;;;;;;;;6139177;23;20391;-52
2022/06/18 09:33:57;;;;;;;8.70;3.45;;;;;;;;;;6143185;23;20037;-49
2022/06/18 09:36:26;;;;;;;7.50;3.13;;;;;;;;;;6140945;23;20061;-48
2022/06/18 09:38:55;;;;;;;6.60;3.70;;;;;;;;;;6144886;23;20009;-46
2022/06/18 09:41:22;;;;;;;10.20;3.72;;;;;;;;;;6142410;23;20033;-48
2022/06/18 09:43:49;;;;;;;9.00;3.60;;;;;;;;;;6142867;23;20443;-51
2022/06/18 09:46:25;;;;;;;10.50;3.75;;;;;;;;;;6128075;23;20346;-49
2022/06/18 09:48:52;;;;;;;12.27;4.00;;;;;;;;;;6136551;23;20021;-46
2022/06/18 09:51:22;;;;;;;8.95;3.67;;;;;;;;;;6135221;23;20049;-47
2022/06/18 09:53:48;;;;;;;11.43;4.35;;;;;;;;;;6134191;23;20017;-50
2022/06/18 09:56:15;;;;;;;10.20;4.50;;;;;;;;;;6135659;23;20028;-50
2022/06/18 09:58:52;;;;;;;7.95;4.55;;;;;;;;;;6138156;23;20020;-49
2022/06/18 10:01:20;;;;;;;12.23;4.35;;;;;;;;;;6133295;23;20005;-46
2022/06/18 10:09:18;;;;;;;6.95;4.60;;;;;;;;;;6129906;23;20443;-48
2022/06/18 10:11:44;;;;;;;8.20;4.60;;;;;;;;;;6125808;23;20018;-47
2022/06/18 10:14:19;;;;;;;6.25;4.30;;;;;;;;;;6141142;23;20025;-47
2022/06/18 10:17:03;;;;;;;10.27;4.82;;;;;;;;;;6119756;23;20093;-48
2022/06/18 10:19:32;;;;;;;11.95;4.72;;;;;;;;;;6137927;23;20103;-51
2022/06/18 10:22:00;;;;;;;7.40;4.40;;;;;;;;;;6137588;23;20019;-46
2022/06/18 10:24:25;;;;;;;4.90;3.47;;;;;;;;;;6128124;23;20009;-51
2022/06/18 10:27:01;;;;;;;9.67;4.90;;;;;;;;;;6136785;23;20320;-48
2022/06/18 10:29:26;;;;;;;7.63;4.43;;;;;;;;;;6122668;23;20314;-50
2022/06/18 10:32:10;;;;;;;10.57;4.50;;;;;;;;;;6112427;23;20862;-48
2022/06/18 10:34:54;;;;;;;5.88;4.90;;;;;;;;;;6155712;23;20227;-47
2022/06/18 10:37:19;;;;;;;6.35;4.63;;;;;;;;;;6131543;23;20013;-48
2022/06/18 10:40:04;;;;;;;7.32;4.53;;;;;;;;;;6086963;23;20017;-48
2022/06/18 10:42:35;;;;;;;8.60;4.78;;;;;;;;;;6147340;23;20024;-47
2022/06/18 10:45:19;;;;;;;9.68;5.35;;;;;;;;;;6162169;23;20087;-47
2022/06/18 10:47:46;;;;;;;7.75;4.97;;;;;;;;;;6152365;23;20009;-49
2022/06/18 10:50:13;;;;;;;6.28;3.85;;;;;;;;;;6165844;23;20039;-48
2022/06/18 10:52:40;;;;;;;6.40;4.15;;;;;;;;;;6170644;23;20025;-50
2022/06/18 10:55:13;;;;;;;11.27;4.22;;;;;;;;;;6177951;23;20009;-49
2022/06/18 10:57:38;;;;;;;7.30;4.28;;;;;;;;;;6137683;23;20812;-50
2022/06/18 11:00:11;;;;;;;7.95;3.83;;;;;;;;;;6171333;23;20049;-47
2022/06/18 11:02:37;;;;;;;10.98;4.47;;;;;;;;;;6172854;23;20012;-51
2022/06/18 11:05:23;;;;;;;8.95;4.30;;;;;;;;;;6174300;23;20040;-49
2022/06/18 11:07:50;;;;;;;8.85;4.88;;;;;;;;;;6145249;23;20009;-49
2022/06/18 11:10:21;;;;;;;7.78;5.00;;;;;;;;;;6157018;23;20024;-49
2022/06/18 11:12:51;;;;;;;7.68;4.75;;;;;;;;;;6168575;23;20024;-49
2022/06/18 11:15:28;;;;;;;7.50;4.38;;;;;;;;;;6150456;23;20033;-50
2022/06/18 11:17:53;;;;;;;10.23;5.32;;;;;;;;;;6168162;23;20013;-47
2022/06/18 11:20:22;;;;;;;9.13;4.20;;;;;;;;;;6176646;23;20081;-50
2022/06/18 11:23:04;;;;;;;11.90;6.10;;;;;;;;;;6171984;23;20028;-51
2022/06/18 11:25:32;;;;;;;6.38;5.55;;;;;;;;;;6172133;23;20527;-48
2022/06/18 11:27:59;;;;;;;10.23;5.63;;;;;;;;;;6174673;23;20005;-48
2022/06/18 11:30:27;;;;;;;12.63;6.38;;;;;;;;;;6174437;23;20013;-46
2022/06/18 11:32:53;;;;;;;8.13;5.43;;;;;;;;;;6176664;23;20171;-46
2022/06/18 11:35:31;;;;;;;10.90;6.30;;;;;;;;;;6151057;23;20650;-51
2022/06/18 11:38:01;;;;;;;9.10;5.97;;;;;;;;;;6169476;23;20100;-47
2022/06/18 11:40:26;;;;;;;;;;;;;;;;;;6178879;23;20327;-51
2022/06/18 11:42:54;;;;;;;13.07;6.10;;;;;;;;;;6166364;23;20250;-47
2022/06/18 11:45:58;;;;;;;7.88;6.03;;;;;;;;;;6174042;23;20313;-48
2022/06/18 11:48:30;;;;;;;11.88;6.28;;;;;;;;;;6015711;23;20015;-50
2022/06/18 11:51:07;;;;;;;7.22;5.25;;;;;;;;;;5995800;23;20024;-47
2022/06/18 11:53:33;;;;;;;8.90;5.60;;;;;;;;;;6114670;23;20587;-48
2022/06/18 11:55:59;;;;;;;9.45;5.40;;;;;;;;;;6174559;23;20032;-51
2022/06/18 11:58:44;;;;;;;10.38;6.05;;;;;;;;;;6179615;23;20044;-46
2022/06/18 12:01:28;;;;;;;8.93;5.05;;;;;;;;;;6174805;23;20013;-47
2022/06/18 12:04:04;;;;;;;8.13;5.13;;;;;;;;;;6174675;23;20021;-51
2022/06/18 12:06:33;;;;;;;12.80;5.35;;;;;;;;;;6178735;23;21031;-50
2022/06/18 12:08:58;;;;;;;13.73;6.40;;;;;;;;;;6175226;23;20463;-48
2022/06/18 12:11:42;;;;;;;14.77;6.65;;;;;;;;;;6179656;23;20009;-50
2022/06/18 12:14:15;;;;;;;16.67;5.53;;;;;;;;;;6175455;23;20009;-45
2022/06/18 12:16:45;;;;;;;18.08;4.63;;;;;;;;;;6179023;23;20061;-45
2022/06/18 12:19:23;;;;;;;16.75;5.05;;;;;;;;;;6179583;23;20016;-47
2022/06/18 12:22:02;;;;;;;10.38;4.53;;;;;;;;;;6175786;23;20020;-49
2022/06/18 12:24:33;;;;;;;9.85;5.10;;;;;;;;;;6178615;23;20013;-49
2022/06/18 12:27:06;;;;;;;10.35;4.32;;;;;;;;;;6176572;23;20005;-47
2022/06/18 12:29:47;;;;;;;14.23;4.95;;;;;;;;;;6147262;23;20016;-50
2022/06/18 12:32:16;;;;;;;14.90;5.20;;;;;;;;;;6166690;23;20029;-50
2022/06/18 12:35:00;;;;;;;14.18;5.68;;;;;;;;;;6174988;23;20044;-49
2022/06/18 12:37:31;;;;;;;11.18;4.95;;;;;;;;;;6174606;23;20057;-49
2022/06/18 12:40:03;;;;;;;9.10;5.00;;;;;;;;;;6176891;23;20073;-48
2022/06/18 12:42:47;;;;;;;15.75;5.82;;;;;;;;;;6164277;23;20447;-46
2022/06/18 12:45:35;;;;;;;12.45;5.13;;;;;;;;;;6175426;23;20009;-46
2022/06/18 12:48:19;;;;;;;13.80;4.75;;;;;;;;;;6172092;23;20020;-47
2022/06/18 12:50:52;;;;;;;10.30;4.35;;;;;;;;;;6169014;23;20024;-47
2022/06/18 12:53:17;;;;;;;7.82;3.70;;;;;;;;;;6169042;23;20024;-48
2022/06/18 12:55:51;;;;;;;12.93;3.92;;;;;;;;;;6174952;23;20040;-48
2022/06/18 12:58:23;;;;;;;11.43;4.10;;;;;;;;;;6172482;23;20013;-47
2022/06/18 13:00:53;;;;;;;11.30;3.33;;;;;;;;;;6172160;23;20013;-46
2022/06/18 13:03:37;;;;;;;10.43;3.40;;;;;;;;;;6175101;23;20017;-46
2022/06/18 13:06:06;;;;;;;7.70;3.28;;;;;;;;;;6174280;23;20619;-46
2022/06/18 13:08:41;;;;;;;14.50;3.65;;;;;;;;;;6167744;23;20043;-48
2022/06/18 13:11:15;;;;;;;12.65;3.78;;;;;;;;;;6176890;23;20016;-49
2022/06/18 13:13:59;;;;;;;7.95;4.10;;;;;;;;;;6170315;23;20044;-47
2022/06/18 13:16:34;;;;;;;9.95;2.95;;;;;;;;;;6173260;23;20013;-46
2022/06/18 13:19:11;;;;;;;12.13;3.63;;;;;;;;;;6174451;23;20037;-46
2022/06/18 13:21:36;;;;;;;9.02;3.53;;;;;;;;;;6170466;23;20013;-49
2022/06/18 13:29:46;;;;;;;14.20;4.20;;;;;;;;;;6168350;23;20075;-47
2022/06/18 13:32:21;;;;;;;7.97;2.80;;;;;;;;;;6175300;23;20693;-46
2022/06/18 13:34:49;;;;;;;12.23;4.13;;;;;;;;;;6176257;23;20040;-48
2022/06/18 13:37:18;;;;;;;10.02;3.88;;;;;;;;;;6178058;23;20012;-47
2022/06/18 13:40:02;;;;;;;11.18;3.20;;;;;;;;;;6175122;23;20110;-48
2022/06/18 13:42:34;;;;;;;11.18;3.53;;;;;;;;;;6176665;23;20036;-48
2022/06/18 13:45:08;;;;;;;7.60;3.40;;;;;;;;;;6175629;23;20013;-47
2022/06/18 13:47:49;;;;;;;5.35;2.20;;;;;;;;;;6178435;23;20017;-46
2022/06/18 13:50:22;;;;;;;11.18;3.42;;;;;;;;;;6173958;23;20360;-45
2022/06/18 13:52:47;;;;;;;10.27;3.38;;;;;;;;;;6149834;23;20049;-46
2022/06/18 13:55:15;;;;;;;7.47;2.70;;;;;;;;;;6174647;23;20016;-48
2022/06/18 13:57:42;;;;;;;7.63;3.22;;;;;;;;;;6176828;23;20028;-49
2022/06/18 14:00:16;;;;;;;6.18;2.90;;;;;;;;;;6177545;23;20009;-50
2022/06/18 14:02:43;;;;;;;6.13;3.00;;;;;;;;;;6177260;23;20055;-47
2022/06/18 14:05:10;;;;;;;6.25;3.10;;;;;;;;;;6174142;23;20019;-49
2022/06/18 14:07:41;;;;;;;7.47;3.08;;;;;;;;;;6146211;23;20020;-47
2022/06/18 14:10:13;;;;;;;6.38;2.50;;;;;;;;;;6143536;23;20024;-49
2022/06/18 14:12:40;;;;;;;9.23;2.97;;;;;;;;;;6139751;23;20033;-46
2022/06/18 14:15:18;;;;;;;4.03;2.20;;;;;;;;;;6151190;23;20408;-48
2022/06/18 14:17:46;;;;;;;9.25;3.38;;;;;;;;;;6173836;23;20612;-46
2022/06/18 14:20:26;;;;;;;10.40;3.05;;;;;;;;;;6176953;23;20511;-47
2022/06/18 14:23:13;;;;;;;8.20;2.47;;;;;;;;;;6171574;23;20025;-45
2022/06/18 14:25:46;;;;;;;11.90;2.72;;;;;;;;;;6177627;23;20016;-46
2022/06/18 14:28:20;;;;;;;12.63;3.15;;;;;;;;;;6175123;23;20009;-48
2022/06/18 14:30:47;;;;;;;8.20;2.30;;;;;;;;;;6175900;23;20036;-48
2022/06/18 14:33:38;;;;;;;7.07;3.03;;;;;;;;;;6172941;23;20032;-46
2022/06/18 14:36:16;;;;;;;5.60;1.92;;;;;;;;;;6177457;23;20040;-47
2022/06/18 14:38:42;;;;;;;9.30;3.25;;;;;;;;;;6174280;23;20024;-48
2022/06/18 14:44:02;;;;;;;6.32;2.90;;;;;;;;;;6175616;23;20028;-47
2022/06/18 14:46:30;;;;;;;6.03;2.17;;;;;;;;;;6176223;23;20009;-45
2022/06/18 14:49:14;;;;;;;6.25;2.42;;;;;;;;;;6177401;23;20096;-47
2022/06/18 14:51:55;;;;;;;5.80;2.22;;;;;;;;;;6177015;23;20092;-49
2022/06/18 14:54:29;;;;;;;9.00;3.17;;;;;;;;;;6174181;23;20005;-46
2022/06/18 14:57:15;;;;;;;11.13;2.60;;;;;;;;;;6178823;23;20608;-47
2022/06/18 14:59:41;;;;;;;7.25;2.78;;;;;;;;;;6175821;23;20009;-48
2022/06/18 15:02:15;;;;;;;10.57;3.75;;;;;;;;;;6175604;23;20444;-45